Marfa, Texas
Current Conditions -  °F | °C
As of 6:15 AM on Sunday 23 Nov 2014 (Local Time) from KMRF Reporting Station
Clear Clear  
Wind Chill: 39°   Ceiling: Unl
Heat Index: 45°   Visibility: 10mi
Dew Point: 30°   Wind: 10mph
Humidity: 57%   Direction: 180°S
Pressure: 29.87"   Gusts: 18mph
Location:  30.31°N, 104.02°W
Report Text: KMRF 231215Z AUTO 18009G16KT 050V250 10SM CLR 07/M01 A2987 RMK AO1
Loading
Personal Weather Stations






























Interactive Weather Map New forecast layout! Learn more

10-Day Weather Forecast

Advertisements
Track Severe Weather on mobile